Time;durP1;ratioP1;P1;durP2;ratioP2;P2;SDS_P1;SDS_P2;PMS_P1;PMS_P2;Temp;Humidity;BMP_temperature;BMP_pressure;BME280_temperature;BME280_humidity;BME280_pressure;Samples;Min_cycle;Max_cycle;Signal;HPM_P1;HPM_P2
2022/01/22 00:02:21;;;;;;;;;;;4.60;98.90;;;;;;5044627;28;19983;-68
2022/01/22 00:04:47;;;;;;;;;;;4.60;98.90;;;;;;5043916;28;19938;-68
2022/01/22 00:07:12;;;;;;;;;;;4.60;98.90;;;;;;5043718;28;19913;-69
2022/01/22 00:09:40;;;;;;;;;;;4.60;98.90;;;;;;5044500;28;19923;-69
2022/01/22 00:12:07;;;;;;;;;;;4.60;98.90;;;;;;5043204;28;19955;-69
2022/01/22 00:14:33;;;;;;;;;;;4.60;98.90;;;;;;5045794;28;19921;-68
2022/01/22 00:17:00;;;;;;;;;;;4.60;98.90;;;;;;5044935;28;19913;-69
2022/01/22 00:19:26;;;;;;;;;;;4.60;98.90;;;;;;5047810;28;19947;-69
2022/01/22 00:21:51;;;;;;;;;;;4.60;98.90;;;;;;5048563;28;19941;-68
2022/01/22 00:24:17;;;;;;;;;;;4.60;98.90;;;;;;5048703;28;20008;-69
2022/01/22 00:26:43;;;;;;;;;;;4.60;98.90;;;;;;5045147;28;19917;-68
2022/01/22 00:29:10;;;;;;;;;;;4.60;98.90;;;;;;5065243;28;20062;-68
2022/01/22 00:31:36;;;;;;;;;;;4.60;98.90;;;;;;5046417;28;19963;-69
2022/01/22 00:34:01;;;;;;;;;;;4.60;98.90;;;;;;5047948;28;19916;-69
2022/01/22 00:36:27;;;;;;;;;;;4.60;98.90;;;;;;5052618;28;20433;-68
2022/01/22 00:38:52;;;;;;;;;;;4.60;99.00;;;;;;5046677;28;20267;-69
2022/01/22 00:41:19;;;;;;;;;;;4.60;98.90;;;;;;5044860;28;19913;-69
2022/01/22 00:43:45;;;;;;;;;;;4.60;98.90;;;;;;5048234;28;19912;-69
2022/01/22 00:46:11;;;;;;;;;;;4.60;98.90;;;;;;5048891;28;19943;-69
2022/01/22 00:48:37;;;;;;;;;;;4.60;98.90;;;;;;5027983;28;19948;-69
2022/01/22 00:51:02;;;;;;;;;;;4.60;98.90;;;;;;5045144;28;20055;-68
2022/01/22 00:53:28;;;;;;;;;;;4.60;98.90;;;;;;5044517;28;20369;-68
2022/01/22 00:55:53;;;;;;;;;;;4.60;99.00;;;;;;5045563;28;19913;-69
2022/01/22 00:58:19;;;;;;;;;;;4.60;99.00;;;;;;5045062;28;19921;-69
2022/01/22 01:00:44;;;;;;;;;;;4.60;99.00;;;;;;5046106;28;19924;-69
2022/01/22 01:03:10;;;;;;;;;;;4.60;99.00;;;;;;5047911;28;20623;-69
2022/01/22 01:05:36;;;;;;;;;;;4.60;99.00;;;;;;5046225;28;19966;-69
2022/01/22 01:08:03;;;;;;;;;;;4.60;98.90;;;;;;5047430;28;19964;-69
2022/01/22 01:10:28;;;;;;;;;;;4.60;98.90;;;;;;5044129;28;19913;-68
2022/01/22 01:12:54;;;;;;;;;;;4.60;98.90;;;;;;5034377;28;20667;-69
2022/01/22 01:15:38;;;;;;;;;;;4.60;98.90;;;;;;5044619;28;19924;-68
2022/01/22 01:34:30;;;;;;;;;;;4.60;99.00;;;;;;5044836;28;19932;-69
2022/01/22 01:36:55;;;;;;;;;;;4.60;99.00;;;;;;5046514;28;19912;-68
2022/01/22 01:39:29;;;;;;;;;;;4.60;99.00;;;;;;5051912;28;19964;-69
2022/01/22 01:42:08;;;;;;;;;;;4.60;99.00;;;;;;5047153;28;19913;-68
2022/01/22 01:44:34;;;;;;;;;;;4.60;99.00;;;;;;5039444;28;19921;-68
2022/01/22 01:47:00;;;;;;;;;;;4.60;99.00;;;;;;5045023;28;19982;-68
2022/01/22 01:49:27;;;;;;;;;;;4.60;99.00;;;;;;5042128;28;19917;-68
2022/01/22 01:51:55;;;;;;;;;;;4.60;99.00;;;;;;5044165;28;19913;-68
2022/01/22 01:59:50;;;;;;;;;;;4.60;99.00;;;;;;5045817;28;20145;-69
2022/01/22 02:02:15;;;;;;;;;;;4.60;99.00;;;;;;5045530;28;20373;-68
2022/01/22 02:04:41;;;;;;;;;;;4.60;99.00;;;;;;5060716;28;19917;-68
2022/01/22 02:07:07;;;;;;;;;;;4.60;99.00;;;;;;5045574;28;19913;-69
2022/01/22 02:09:33;;;;;;;;;;;4.60;99.00;;;;;;5043048;28;20629;-69
2022/01/22 02:12:05;;;;;;;;;;;4.60;99.00;;;;;;5046469;28;20451;-68
2022/01/22 02:25:22;;;;;;;;;;;4.60;99.00;;;;;;5045499;28;19955;-69
2022/01/22 02:27:48;;;;;;;;;;;4.60;99.10;;;;;;5057938;28;20348;-69
2022/01/22 02:30:20;;;;;;;;;;;4.60;99.00;;;;;;5045763;28;19923;-68
2022/01/22 02:35:30;;;;;;;;;;;4.60;99.00;;;;;;5043320;28;19916;-68
2022/01/22 02:38:02;;;;;;;;;;;4.60;99.00;;;;;;5039061;28;19921;-68
2022/01/22 02:40:33;;;;;;;;;;;4.60;99.00;;;;;;5043721;28;20066;-68
2022/01/22 02:42:59;;;;;;;;;;;4.60;99.10;;;;;;5044376;28;20047;-69
2022/01/22 02:45:25;;;;;;;;;;;4.60;99.00;;;;;;5043639;28;19917;-68
2022/01/22 02:47:51;;;;;;;;;;;4.60;99.10;;;;;;5048736;28;20519;-68
2022/01/22 02:50:17;;;;;;;;;;;4.60;99.00;;;;;;5044029;28;19913;-68
2022/01/22 02:52:43;;;;;;;;;;;4.60;99.00;;;;;;5044415;28;19966;-68
2022/01/22 02:55:11;;;;;;;;;;;4.60;99.00;;;;;;5044152;28;19920;-68
2022/01/22 02:57:37;;;;;;;;;;;4.60;99.00;;;;;;5051981;28;19913;-68
2022/01/22 03:00:07;;;;;;;;;;;4.60;99.00;;;;;;5045386;28;19971;-68
2022/01/22 03:02:32;;;;;;;;;;;4.60;99.00;;;;;;5043790;28;19924;-68
2022/01/22 03:04:58;;;;;;;;;;;4.60;99.00;;;;;;5027921;28;19917;-69
2022/01/22 03:07:24;;;;;;;;;;;4.60;99.00;;;;;;5045996;28;19923;-69
2022/01/22 03:09:52;;;;;;;;;;;4.60;99.00;;;;;;5046252;28;19916;-68
2022/01/22 03:27:50;;;;;;;;;;;4.60;99.00;;;;;;5042934;28;19974;-68
2022/01/22 03:30:16;;;;;;;;;;;4.60;99.00;;;;;;5060170;28;19925;-68
2022/01/22 03:32:49;;;;;;;;;;;4.60;99.00;;;;;;5043228;28;19916;-68
2022/01/22 03:37:43;;;;;;;;;;;4.60;99.00;;;;;;5041831;28;19917;-68
2022/01/22 03:40:09;;;;;;;;;;;4.60;99.00;;;;;;5047017;28;19962;-68
2022/01/22 03:42:35;;;;;;;;;;;4.60;99.00;;;;;;5042690;28;19920;-69
2022/01/22 03:45:04;;;;;;;;;;;4.60;99.00;;;;;;5044683;28;19913;-69
2022/01/22 03:47:30;;;;;;;;;;;4.60;99.00;;;;;;5041786;28;20406;-69
2022/01/22 03:49:55;;;;;;;;;;;4.60;99.00;;;;;;5051532;28;19913;-68
2022/01/22 03:52:21;;;;;;;;;;;4.60;99.00;;;;;;5043229;28;19913;-68
2022/01/22 03:54:46;;;;;;;;;;;4.60;99.10;;;;;;5045645;28;20042;-69
2022/01/22 03:57:12;;;;;;;;;;;4.60;99.10;;;;;;5057883;28;19940;-69
2022/01/22 03:59:37;;;;;;;;;;;4.60;99.10;;;;;;5043071;28;19920;-69
2022/01/22 04:02:45;;;;;;;;;;;4.60;99.10;;;;;;5044068;28;19966;-69
2022/01/22 04:05:04;;;;;;;;;;;4.60;99.10;;;;;;5047736;28;20003;-69
2022/01/22 04:10:04;;;;;;;;;;;4.60;99.10;;;;;;5039026;28;20404;-68
2022/01/22 04:12:58;;;;;;;;;;;4.60;99.10;;;;;;5040402;28;19925;-68
2022/01/22 04:15:20;;;;;;;;;;;4.60;99.10;;;;;;5047738;28;19955;-68
2022/01/22 04:25:49;;;;;;;;;;;4.60;99.10;;;;;;5044875;28;19971;-69
2022/01/22 04:28:14;;;;;;;;;;;4.60;99.10;;;;;;5025473;28;19925;-68
2022/01/22 04:30:40;;;;;;;;;;;4.60;99.10;;;;;;5030118;28;19924;-69
2022/01/22 04:33:05;;;;;;;;;;;4.60;99.10;;;;;;5045733;28;19917;-69
2022/01/22 04:35:31;;;;;;;;;;;4.60;99.20;;;;;;5041076;28;20521;-68
2022/01/22 04:37:57;;;;;;;;;;;4.70;99.20;;;;;;5042708;28;19916;-68
2022/01/22 04:40:22;;;;;;;;;;;4.60;99.20;;;;;;5041597;28;19917;-68
2022/01/22 04:42:48;;;;;;;;;;;4.60;99.10;;;;;;5030156;28;19924;-68
2022/01/22 04:45:29;;;;;;;;;;;4.60;99.10;;;;;;5039837;28;20428;-69
2022/01/22 04:56:07;;;;;;;;;;;4.60;99.10;;;;;;5042335;28;20576;-69
2022/01/22 04:58:33;;;;;;;;;;;4.70;99.20;;;;;;5047720;28;19916;-68
2022/01/22 05:00:58;;;;;;;;;;;4.60;99.20;;;;;;5030667;28;19955;-68
2022/01/22 05:03:24;;;;;;;;;;;4.60;99.20;;;;;;5047040;28;20486;-68
2022/01/22 05:05:49;;;;;;;;;;;4.70;99.20;;;;;;5044512;28;19923;-69
2022/01/22 05:08:15;;;;;;;;;;;4.60;99.20;;;;;;5068017;28;19987;-68
2022/01/22 05:10:40;;;;;;;;;;;4.70;99.20;;;;;;5044300;28;19951;-68
2022/01/22 05:13:06;;;;;;;;;;;4.60;99.20;;;;;;5047206;28;19915;-69
2022/01/22 05:15:31;;;;;;;;;;;4.60;99.20;;;;;;5030125;28;20286;-68
2022/01/22 05:17:57;;;;;;;;;;;4.60;99.20;;;;;;5027753;28;19912;-68
2022/01/22 05:20:34;;;;;;;;;;;4.60;99.20;;;;;;5045515;28;19917;-69
2022/01/22 05:23:15;;;;;;;;;;;4.70;99.20;;;;;;5024424;28;20551;-68
2022/01/22 05:25:47;;;;;;;;;;;4.70;99.20;;;;;;5044325;28;19920;-69
2022/01/22 05:39:24;;;;;;;;;;;4.70;99.20;;;;;;5047042;28;19917;-69
2022/01/22 05:41:50;;;;;;;;;;;4.70;99.20;;;;;;5045344;28;19955;-68
2022/01/22 05:44:16;;;;;;;;;;;4.70;99.20;;;;;;5046036;28;19909;-69
2022/01/22 05:46:41;;;;;;;;;;;4.70;99.20;;;;;;5043951;28;19924;-68
2022/01/22 05:49:07;;;;;;;;;;;4.60;99.20;;;;;;5045906;28;19959;-68
2022/01/22 05:51:34;;;;;;;;;;;4.70;99.20;;;;;;5025878;28;19927;-68
2022/01/22 06:01:53;;;;;;;;;;;4.70;99.20;;;;;;5046922;28;19924;-68
2022/01/22 06:04:18;;;;;;;;;;;4.70;99.20;;;;;;5043035;28;19912;-68
2022/01/22 06:06:44;;;;;;;;;;;4.70;99.30;;;;;;5046390;28;19974;-68
2022/01/22 06:09:10;;;;;;;;;;;4.70;99.20;;;;;;5060355;28;19921;-68
2022/01/22 06:11:54;;;;;;;;;;;4.70;99.20;;;;;;5047894;28;19921;-69
2022/01/22 06:14:19;;;;;;;;;;;4.70;99.20;;;;;;5043420;28;19979;-69
2022/01/22 06:16:45;;;;;;;;;;;4.70;99.20;;;;;;5032018;28;20010;-68
2022/01/22 06:19:10;;;;;;;;;;;4.70;99.20;;;;;;5042905;28;19947;-69
2022/01/22 06:21:36;;;;;;;;;;;4.70;99.20;;;;;;5045274;28;20490;-68
2022/01/22 06:24:01;;;;;;;;;;;4.70;99.20;;;;;;5043494;28;20601;-69
2022/01/22 06:26:27;;;;;;;;;;;4.70;99.20;;;;;;5055659;28;19909;-68
2022/01/22 06:28:52;;;;;;;;;;;4.70;99.30;;;;;;5043498;28;19925;-68
2022/01/22 06:31:18;;;;;;;;;;;4.70;99.30;;;;;;5030243;28;19920;-68
2022/01/22 06:33:43;;;;;;;;;;;4.70;99.30;;;;;;5044302;28;19912;-68
2022/01/22 06:36:09;;;;;;;;;;;4.70;99.30;;;;;;5043326;28;19956;-68
2022/01/22 06:38:34;;;;;;;;;;;4.70;99.30;;;;;;5042256;28;19955;-68
2022/01/22 06:43:45;;;;;;;;;;;4.70;99.30;;;;;;5043488;28;19928;-68
2022/01/22 06:46:10;;;;;;;;;;;4.70;99.30;;;;;;5044062;28;19924;-69
2022/01/22 06:48:35;;;;;;;;;;;4.70;99.30;;;;;;5029332;28;19932;-68
2022/01/22 06:51:01;;;;;;;;;;;4.80;99.30;;;;;;5043607;28;19908;-69
2022/01/22 06:53:27;;;;;;;;;;;4.70;99.30;;;;;;5049914;28;19927;-68
2022/01/22 06:56:02;;;;;;;;;;;4.70;99.30;;;;;;5043138;28;20028;-68
2022/01/22 06:58:27;;;;;;;;;;;4.80;99.30;;;;;;5042375;28;20301;-68
2022/01/22 07:00:53;;;;;;;;;;;4.80;99.30;;;;;;5040660;28;19924;-69
2022/01/22 07:03:18;;;;;;;;;;;4.80;99.30;;;;;;5037012;28;19939;-69
2022/01/22 07:05:44;;;;;;;;;;;4.80;99.30;;;;;;5041202;28;19990;-68
2022/01/22 07:08:09;;;;;;;;;;;4.80;99.40;;;;;;5042697;28;20356;-69
2022/01/22 07:10:35;;;;;;;;;;;4.70;99.30;;;;;;5041952;28;19924;-68
2022/01/22 07:13:00;;;;;;;;;;;4.70;99.30;;;;;;5041575;28;19920;-69
2022/01/22 07:15:26;;;;;;;;;;;4.80;99.30;;;;;;5044516;28;19917;-69
2022/01/22 07:17:52;;;;;;;;;;;4.80;99.30;;;;;;5045473;28;19940;-68
2022/01/22 07:20:25;;;;;;;;;;;4.80;99.30;;;;;;5040688;28;19913;-69
2022/01/22 07:25:17;;;;;;;;;;;4.80;99.30;;;;;;5042839;28;19917;-68
2022/01/22 07:27:42;;;;;;;;;;;4.80;99.30;;;;;;5040587;28;20561;-69
2022/01/22 07:30:08;;;;;;;;;;;4.80;99.30;;;;;;5036514;28;19917;-68
2022/01/22 07:32:37;;;;;;;;;;;4.80;99.30;;;;;;5039814;28;19924;-68
2022/01/22 07:35:03;;;;;;;;;;;4.80;99.30;;;;;;5049303;28;20577;-68
2022/01/22 07:37:29;;;;;;;;;;;4.80;99.30;;;;;;5039443;28;19913;-68
2022/01/22 07:39:54;;;;;;;;;;;4.80;99.30;;;;;;5036005;28;19963;-69
2022/01/22 07:42:20;;;;;;;;;;;4.80;99.30;;;;;;5025961;28;19920;-69
2022/01/22 07:44:45;;;;;;;;;;;4.80;99.40;;;;;;5068581;28;20000;-69
2022/01/22 07:47:11;;;;;;;;;;;4.80;99.30;;;;;;5037837;28;19924;-68
2022/01/22 07:49:37;;;;;;;;;;;4.80;99.30;;;;;;5051858;28;19959;-69
2022/01/22 07:52:02;;;;;;;;;;;4.80;99.60;;;;;;5039782;28;19940;-68
2022/01/22 07:54:28;;;;;;;;;;;4.80;99.40;;;;;;5042098;28;20643;-68
2022/01/22 07:56:53;;;;;;;;;;;4.80;99.30;;;;;;5042063;28;19913;-68
2022/01/22 07:59:19;;;;;;;;;;;4.80;99.30;;;;;;5040132;28;20042;-68
2022/01/22 08:01:44;;;;;;;;;;;4.80;99.30;;;;;;5040487;28;20517;-68
2022/01/22 08:04:10;;;;;;;;;;;4.80;99.30;;;;;;5041091;28;19952;-68
2022/01/22 08:06:35;;;;;;;;;;;4.80;99.30;;;;;;5031475;28;19920;-69
2022/01/22 08:09:01;;;;;;;;;;;4.80;99.30;;;;;;5040118;28;19931;-68
2022/01/22 08:11:27;;;;;;;;;;;4.80;99.30;;;;;;5039036;28;19920;-69
2022/01/22 08:13:52;;;;;;;;;;;4.80;99.30;;;;;;5038754;28;19912;-68
2022/01/22 08:16:18;;;;;;;;;;;4.80;99.30;;;;;;5039053;28;19919;-69
2022/01/22 08:18:43;;;;;;;;;;;4.90;99.30;;;;;;5038102;28;19917;-68
2022/01/22 08:21:09;;;;;;;;;;;4.80;99.40;;;;;;5037119;28;20536;-68
2022/01/22 08:23:34;;;;;;;;;;;4.80;99.30;;;;;;5020294;28;19921;-69
2022/01/22 08:26:04;;;;;;;;;;;4.80;99.30;;;;;;5042657;28;19992;-68
2022/01/22 08:36:44;;;;;;;;;;;4.80;99.30;;;;;;5052562;28;19993;-68
2022/01/22 08:39:10;;;;;;;;;;;4.90;99.30;;;;;;5047629;28;19971;-69
2022/01/22 08:41:36;;;;;;;;;;;4.90;99.40;;;;;;5047990;28;20479;-69
2022/01/22 08:44:02;;;;;;;;;;;4.90;99.30;;;;;;5050740;28;20003;-68
2022/01/22 08:46:27;;;;;;;;;;;4.90;99.30;;;;;;5045533;28;20000;-68
2022/01/22 08:48:53;;;;;;;;;;;4.90;99.30;;;;;;5050195;28;19960;-68
2022/01/22 08:51:19;;;;;;;;;;;4.90;99.30;;;;;;5043781;28;20124;-68
2022/01/22 08:53:45;;;;;;;;;;;4.90;99.30;;;;;;5052094;28;19916;-68
2022/01/22 08:56:10;;;;;;;;;;;4.90;99.30;;;;;;5043025;28;19923;-68
2022/01/22 08:58:36;;;;;;;;;;;4.90;99.30;;;;;;5047670;28;19921;-68
2022/01/22 09:01:02;;;;;;;;;;;4.90;99.60;;;;;;5045183;28;19912;-68
2022/01/22 09:03:27;;;;;;;;;;;4.90;99.30;;;;;;5050751;28;19925;-68
2022/01/22 09:05:54;;;;;;;;;;;4.90;99.30;;;;;;5043907;28;19924;-68
2022/01/22 09:08:20;;;;;;;;;;;4.90;99.40;;;;;;5047259;28;20791;-69
2022/01/22 09:10:46;;;;;;;;;;;5.00;99.40;;;;;;5044174;28;19974;-68
2022/01/22 09:13:12;;;;;;;;;;;5.00;99.40;;;;;;5046814;28;19909;-69
2022/01/22 09:15:38;;;;;;;;;;;5.00;99.40;;;;;;5045179;28;19916;-69
2022/01/22 09:18:04;;;;;;;;;;;5.00;99.40;;;;;;5047010;28;19913;-68
2022/01/22 09:21:15;;;;;;;;;;;5.10;99.40;;;;;;5045560;28;19929;-69
2022/01/22 09:23:17;;;;;;;;;;;5.00;99.40;;;;;;5034195;28;19912;-68
2022/01/22 09:25:43;;;;;;;;;;;5.00;99.40;;;;;;5043196;28;19917;-68
2022/01/22 09:28:12;;;;;;;;;;;5.10;99.40;;;;;;5046721;28;19923;-69
2022/01/22 09:30:38;;;;;;;;;;;5.10;99.40;;;;;;5044297;28;20532;-68
2022/01/22 09:33:03;;;;;;;;;;;5.10;99.40;;;;;;5044224;28;19921;-69
2022/01/22 09:35:29;;;;;;;;;;;5.10;99.40;;;;;;5031929;28;19921;-68
2022/01/22 09:37:54;;;;;;;;;;;5.10;99.30;;;;;;5043440;28;19956;-69
2022/01/22 09:40:21;;;;;;;;;;;5.10;99.30;;;;;;5046766;28;20068;-68
2022/01/22 09:42:46;;;;;;;;;;;5.20;99.70;;;;;;5044702;28;19917;-69
2022/01/22 09:45:13;;;;;;;;;;;5.20;99.30;;;;;;5046106;28;19913;-69
2022/01/22 09:47:42;;;;;;;;;;;5.20;99.40;;;;;;5043581;28;20274;-71
2022/01/22 09:50:08;;;;;;;;;;;5.20;99.30;;;;;;5046000;28;19917;-71
2022/01/22 09:52:34;;;;;;;;;;;5.20;99.30;;;;;;5040709;28;19916;-69
2022/01/22 09:55:00;;;;;;;;;;;5.20;99.30;;;;;;5046664;28;20744;-68
2022/01/22 09:57:26;;;;;;;;;;;5.20;99.30;;;;;;5043337;28;20441;-69
2022/01/22 09:59:52;;;;;;;;;;;5.20;99.30;;;;;;5044898;28;19913;-69
2022/01/22 10:02:19;;;;;;;;;;;5.20;99.30;;;;;;5044317;28;19925;-68
2022/01/22 10:04:48;;;;;;;;;;;5.20;99.30;;;;;;5044422;28;20687;-69
2022/01/22 10:07:21;;;;;;;;;;;5.20;99.20;;;;;;5046131;28;20079;-68
2022/01/22 10:09:56;;;;;;;;;;;5.20;99.30;;;;;;5044553;28;19917;-69
2022/01/22 10:12:22;;;;;;;;;;;5.20;99.20;;;;;;5044706;28;19912;-68
2022/01/22 10:15:06;;;;;;;;;;;5.20;99.30;;;;;;5045460;28;19990;-69
2022/01/22 10:17:42;;;;;;;;;;;5.30;99.30;;;;;;5042909;28;19913;-68
2022/01/22 10:20:28;;;;;;;;;;;5.20;99.30;;;;;;5044956;28;19952;-68
2022/01/22 10:22:53;;;;;;;;;;;5.30;99.40;;;;;;5036171;28;20700;-69
2022/01/22 10:25:24;;;;;;;;;;;5.30;99.40;;;;;;5045691;28;19924;-69
2022/01/22 10:27:57;;;;;;;;;;;5.30;99.40;;;;;;5044192;28;19925;-69
2022/01/22 10:30:22;;;;;;;;;;;5.30;99.40;;;;;;5043944;28;19909;-69
2022/01/22 10:33:04;;;;;;;;;;;5.30;99.40;;;;;;5045571;28;19919;-69
2022/01/22 10:35:50;;;;;;;;;;;5.30;99.50;;;;;;5045157;28;19917;-69
2022/01/22 10:38:18;;;;;;;;;;;5.30;99.50;;;;;;5047802;28;19917;-69
2022/01/22 10:40:44;;;;;;;;;;;5.30;99.40;;;;;;5044521;28;19913;-68
2022/01/22 10:43:10;;;;;;;;;;;5.40;99.50;;;;;;5046447;28;19920;-69
2022/01/22 10:45:40;;;;;;;;;;;5.40;99.40;;;;;;5042569;28;20366;-69
2022/01/22 10:48:14;;;;;;;;;;;5.40;99.50;;;;;;5048677;28;19924;-68
2022/01/22 10:50:40;;;;;;;;;;;5.40;99.40;;;;;;5040673;28;20073;-69
2022/01/22 10:53:05;;;;;;;;;;;5.50;99.30;;;;;;5056577;28;19912;-68
2022/01/22 10:55:31;;;;;;;;;;;5.50;99.40;;;;;;5041562;28;20485;-69
2022/01/22 10:58:09;;;;;;;;;;;5.50;99.20;;;;;;5047521;28;19916;-68
2022/01/22 11:00:35;;;;;;;;;;;5.50;99.20;;;;;;5040617;28;19956;-68
2022/01/22 11:03:20;;;;;;;;;;;5.40;99.20;;;;;;5049279;28;19916;-68
2022/01/22 11:05:45;;;;;;;;;;;5.50;99.30;;;;;;5039664;28;19927;-68
2022/01/22 11:08:13;;;;;;;;;;;5.40;99.30;;;;;;5043509;28;19921;-69
2022/01/22 11:10:39;;;;;;;;;;;5.50;99.30;;;;;;5047844;28;19917;-68
2022/01/22 11:13:05;;;;;;;;;;;5.50;99.40;;;;;;5045274;28;19913;-69
2022/01/22 11:15:31;;;;;;;;;;;5.50;99.50;;;;;;5041426;28;19928;-69
2022/01/22 11:17:58;;;;;;;;;;;5.60;99.50;;;;;;5043064;28;20254;-68
2022/01/22 11:20:24;;;;;;;;;;;5.70;99.20;;;;;;5042808;28;20512;-68
2022/01/22 11:22:50;;;;;;;;;;;5.70;99.20;;;;;;5044249;28;19959;-69
2022/01/22 11:25:16;;;;;;;;;;;5.70;99.00;;;;;;5042676;28;19924;-68
2022/01/22 11:27:42;;;;;;;;;;;5.80;98.90;;;;;;5044050;28;20269;-69
2022/01/22 11:30:09;;;;;;;;;;;5.80;98.90;;;;;;5048357;28;20497;-68
2022/01/22 11:32:41;;;;;;;;;;;5.80;98.90;;;;;;5041896;28;20004;-69
2022/01/22 11:35:07;;;;;;;;;;;5.80;98.90;;;;;;5050120;28;19908;-68
2022/01/22 11:37:46;;;;;;;;;;;5.80;98.90;;;;;;5041108;28;19913;-68
2022/01/22 11:40:19;;;;;;;;;;;5.80;98.90;;;;;;5046266;28;19952;-69
2022/01/22 11:43:03;;;;;;;;;;;5.80;99.00;;;;;;5041538;28;20590;-69
2022/01/22 11:45:36;;;;;;;;;;;5.80;99.00;;;;;;5050695;28;19999;-68
2022/01/22 11:48:10;;;;;;;;;;;5.80;99.10;;;;;;5022858;28;19917;-69
2022/01/22 11:50:36;;;;;;;;;;;5.80;99.20;;;;;;5044391;28;20470;-68
2022/01/22 11:53:22;;;;;;;;;;;5.80;99.20;;;;;;5020676;28;19965;-69
2022/01/22 11:56:06;;;;;;;;;;;5.80;99.20;;;;;;5048194;28;19913;-69
2022/01/22 11:58:31;;;;;;;;;;;5.70;99.20;;;;;;5040837;28;19913;-68
2022/01/22 12:00:57;;;;;;;;;;;5.80;99.20;;;;;;5049252;28;19909;-68
2022/01/22 12:03:22;;;;;;;;;;;5.70;99.20;;;;;;5045012;28;20027;-68
2022/01/22 12:05:54;;;;;;;;;;;5.70;99.30;;;;;;5043959;28;19936;-69
2022/01/22 12:08:22;;;;;;;;;;;5.80;99.30;;;;;;5038374;28;19954;-68
2022/01/22 12:16:38;;;;;;;;;;;5.70;99.30;;;;;;5049408;28;19959;-68
2022/01/22 12:19:09;;;;;;;;;;;5.70;99.30;;;;;;5046691;28;20047;-69
2022/01/22 12:21:36;;;;;;;;;;;5.80;99.30;;;;;;5052369;28;19963;-69
2022/01/22 12:24:03;;;;;;;;;;;5.80;99.30;;;;;;5029757;28;19917;-68
2022/01/22 12:26:45;;;;;;;;;;;5.70;99.30;;;;;;5048878;28;20111;-68
2022/01/22 12:29:26;;;;;;;;;;;5.70;99.30;;;;;;5046391;28;19928;-68
2022/01/22 12:32:10;;;;;;;;;;;5.70;99.40;;;;;;5049301;28;19919;-69
2022/01/22 12:34:54;;;;;;;;;;;5.70;99.40;;;;;;5043050;28;19912;-68
2022/01/22 12:37:21;;;;;;;;;;;5.70;99.40;;;;;;5047837;28;19922;-69
2022/01/22 12:39:53;;;;;;;;;;;5.70;99.40;;;;;;5044799;28;19928;-69
2022/01/22 12:42:28;;;;;;;;;;;5.70;99.40;;;;;;5048889;28;19913;-69
2022/01/22 12:44:58;;;;;;;;;;;5.70;99.40;;;;;;5044957;28;19956;-68
2022/01/22 12:47:25;;;;;;;;;;;5.70;99.40;;;;;;5049796;28;20370;-69
2022/01/22 12:49:57;;;;;;;;;;;5.70;99.40;;;;;;5047225;28;19986;-69
2022/01/22 12:52:25;;;;;;;;;;;5.70;99.40;;;;;;5047687;28;20619;-69
2022/01/22 12:54:56;;;;;;;;;;;5.70;99.40;;;;;;5050628;28;19917;-68
2022/01/22 12:57:24;;;;;;;;;;;5.70;99.40;;;;;;5046004;28;20326;-69
2022/01/22 12:59:49;;;;;;;;;;;5.70;99.30;;;;;;5030131;28;20020;-69
2022/01/22 13:02:15;;;;;;;;;;;5.70;99.30;;;;;;5046790;28;20001;-69
2022/01/22 13:04:40;;;;;;;;;;;5.70;99.40;;;;;;5050104;28;19970;-69
2022/01/22 13:07:12;;;;;;;;;;;5.70;99.50;;;;;;5047250;28;20027;-69
2022/01/22 13:09:45;;;;;;;;;;;5.70;99.50;;;;;;5039803;28;20255;-68
2022/01/22 13:12:10;;;;;;;;;;;5.70;99.50;;;;;;5045334;28;19951;-69
2022/01/22 13:14:36;;;;;;;;;;;5.70;99.70;;;;;;5045300;28;19939;-69
2022/01/22 13:17:02;;;;;;;;;;;5.70;99.40;;;;;;5045386;28;19974;-69
2022/01/22 13:19:28;;;;;;;;;;;5.70;99.40;;;;;;5047838;28;19909;-69
2022/01/22 13:21:56;;;;;;;;;;;5.70;99.40;;;;;;5048107;28;19916;-69
2022/01/22 13:24:24;;;;;;;;;;;5.80;99.40;;;;;;5047988;28;19913;-69
2022/01/22 13:29:28;;;;;;;;;;;5.80;99.40;;;;;;5047566;28;19944;-69
2022/01/22 13:31:55;;;;;;;;;;;5.80;99.40;;;;;;5038712;28;19920;-69
2022/01/22 13:34:32;;;;;;;;;;;5.80;99.30;;;;;;5029855;28;20305;-68
2022/01/22 13:37:51;;;;;;;;;;;5.80;99.30;;;;;;5036509;28;19921;-69
2022/01/22 13:48:09;;;;;;;;;;;5.70;99.40;;;;;;5020274;28;20553;-68
2022/01/22 13:50:35;;;;;;;;;;;5.80;99.40;;;;;;5045682;28;19919;-69
2022/01/22 13:53:00;;;;;;;;;;;5.70;99.40;;;;;;5042484;28;19917;-69
2022/01/22 13:55:26;;;;;;;;;;;5.70;99.40;;;;;;5047746;28;19923;-68
2022/01/22 13:57:52;;;;;;;;;;;5.70;99.40;;;;;;5040428;28;20392;-68
2022/01/22 14:00:18;;;;;;;;;;;5.70;99.40;;;;;;5045553;28;19966;-68
2022/01/22 14:05:17;;;;;;;;;;;5.70;99.40;;;;;;5045903;28;19939;-68
2022/01/22 14:07:57;;;;;;;;;;;5.70;99.40;;;;;;5042500;28;20008;-68
2022/01/22 14:10:25;;;;;;;;;;;5.70;99.50;;;;;;5044904;28;19951;-68
2022/01/22 14:12:52;;;;;;;;;;;5.70;99.50;;;;;;5061888;28;20854;-69
2022/01/22 14:15:24;;;;;;;;;;;5.70;99.50;;;;;;5043403;28;19920;-69
2022/01/22 14:17:54;;;;;;;;;;;5.70;99.50;;;;;;5034027;28;20354;-68
2022/01/22 14:20:25;;;;;;;;;;;5.70;99.50;;;;;;5039926;28;20270;-69
2022/01/22 14:22:53;;;;;;;;;;;5.70;99.50;;;;;;5026922;28;19924;-69
2022/01/22 14:25:19;;;;;;;;;;;5.70;99.50;;;;;;5040878;28;19924;-69
2022/01/22 14:28:17;;;;;;;;;;;5.70;99.50;;;;;;5042183;28;20336;-68
2022/01/22 14:30:44;;;;;;;;;;;5.70;99.50;;;;;;5005577;28;19924;-69
2022/01/22 14:33:11;;;;;;;;;;;5.70;99.50;;;;;;5043941;28;19920;-69
2022/01/22 14:35:36;;;;;;;;;;;5.70;99.50;;;;;;5044257;28;20007;-69
2022/01/22 14:38:20;;;;;;;;;;;5.70;99.50;;;;;;5049160;28;20316;-68
2022/01/22 14:46:23;;;;;;;;;;;5.70;99.60;;;;;;5044473;28;19924;-68
2022/01/22 14:48:50;;;;;;;;;;;5.70;99.60;;;;;;5045264;28;19928;-69
2022/01/22 14:51:30;;;;;;;;;;;5.70;99.60;;;;;;5043311;28;19917;-69
2022/01/22 14:53:56;;;;;;;;;;;5.70;99.60;;;;;;5046356;28;19956;-69
2022/01/22 14:56:21;;;;;;;;;;;5.70;99.60;;;;;;5045421;28;19951;-68
2022/01/22 14:58:47;;;;;;;;;;;5.70;99.60;;;;;;5044672;28;19913;-68
2022/01/22 15:01:12;;;;;;;;;;;5.70;99.60;;;;;;5043037;28;19919;-69
2022/01/22 15:03:38;;;;;;;;;;;5.70;99.60;;;;;;5045335;28;19920;-68
2022/01/22 15:06:03;;;;;;;;;;;5.60;99.50;;;;;;5046144;28;19921;-68
2022/01/22 15:08:29;;;;;;;;;;;5.70;99.60;;;;;;5045124;28;20358;-69
2022/01/22 15:10:54;;;;;;;;;;;5.70;99.50;;;;;;5041784;28;19917;-68
2022/01/22 15:13:21;;;;;;;;;;;5.70;99.60;;;;;;5044129;28;20669;-68
2022/01/22 15:15:48;;;;;;;;;;;5.60;99.50;;;;;;5040350;28;19927;-68
2022/01/22 15:18:27;;;;;;;;;;;5.60;99.50;;;;;;5043865;28;19913;-69
2022/01/22 15:20:52;;;;;;;;;;;5.70;99.50;;;;;;5048449;28;19928;-69
2022/01/22 15:23:18;;;;;;;;;;;5.60;99.50;;;;;;5043928;28;19913;-68
2022/01/22 15:25:43;;;;;;;;;;;5.60;99.50;;;;;;5037651;28;19958;-69
2022/01/22 15:28:09;;;;;;;;;;;5.60;99.50;;;;;;5044249;28;19977;-68
2022/01/22 15:30:36;;;;;;;;;;;5.60;99.60;;;;;;5043403;28;20950;-68
2022/01/22 15:35:28;;;;;;;;;;;5.60;99.60;;;;;;5042936;28;19916;-69
2022/01/22 15:37:58;;;;;;;;;;;5.60;99.60;;;;;;5060381;28;19921;-69
2022/01/22 15:40:25;;;;;;;;;;;5.60;99.50;;;;;;5043442;28;19964;-69
2022/01/22 15:42:51;;;;;;;;;;;5.60;99.50;;;;;;5043832;28;19963;-69
2022/01/22 15:45:18;;;;;;;;;;;5.60;99.60;;;;;;5040914;28;19913;-69
2022/01/22 15:47:44;;;;;;;;;;;5.60;99.60;;;;;;5043086;28;19920;-69
2022/01/22 15:50:09;;;;;;;;;;;5.60;99.60;;;;;;5043343;28;19952;-69
2022/01/22 15:52:35;;;;;;;;;;;5.60;99.50;;;;;;5042912;28;20462;-69
2022/01/22 15:55:00;;;;;;;;;;;5.60;99.50;;;;;;5043184;28;19974;-69
2022/01/22 15:57:26;;;;;;;;;;;5.60;99.80;;;;;;5045616;28;19920;-68
2022/01/22 15:59:52;;;;;;;;;;;5.60;99.50;;;;;;5043911;28;20441;-69
2022/01/22 16:02:18;;;;;;;;;;;5.50;99.50;;;;;;5039505;28;20321;-68
2022/01/22 16:04:49;;;;;;;;;;;5.50;99.40;;;;;;5022309;28;19936;-69
2022/01/22 16:07:23;;;;;;;;;;;5.60;99.40;;;;;;5041330;28;20351;-68
2022/01/22 16:09:50;;;;;;;;;;;5.50;99.40;;;;;;5040418;28;20024;-68
2022/01/22 16:12:17;;;;;;;;;;;5.50;99.50;;;;;;5044509;28;20374;-68
2022/01/22 16:14:42;;;;;;;;;;;5.60;99.50;;;;;;5042291;28;19916;-68
2022/01/22 16:17:08;;;;;;;;;;;5.50;99.50;;;;;;5041862;28;20423;-68
2022/01/22 16:19:35;;;;;;;;;;;5.50;99.40;;;;;;5043655;28;19919;-68
2022/01/22 16:22:00;;;;;;;;;;;5.50;99.30;;;;;;5024112;28;19917;-69
2022/01/22 16:24:26;;;;;;;;;;;5.50;99.30;;;;;;5046339;28;19924;-68
2022/01/22 16:26:51;;;;;;;;;;;5.60;99.30;;;;;;5039218;28;19959;-68
2022/01/22 16:29:17;;;;;;;;;;;5.50;99.30;;;;;;5044806;28;20358;-69
2022/01/22 16:31:44;;;;;;;;;;;5.50;99.30;;;;;;5043867;28;19996;-68
2022/01/22 16:34:10;;;;;;;;;;;5.50;99.30;;;;;;5039575;28;19917;-68
2022/01/22 16:36:35;;;;;;;;;;;5.50;99.30;;;;;;5042138;28;19944;-68
2022/01/22 16:39:04;;;;;;;;;;;5.50;99.30;;;;;;5048378;28;19924;-68
2022/01/22 16:41:31;;;;;;;;;;;5.50;99.30;;;;;;5041779;28;19917;-68
2022/01/22 16:43:59;;;;;;;;;;;5.50;99.30;;;;;;5042273;28;19917;-68
2022/01/22 16:46:47;;;;;;;;;;;5.50;99.30;;;;;;5039469;28;19923;-68
2022/01/22 16:52:06;;;;;;;;;;;5.50;99.30;;;;;;5043383;28;19923;-68